Time;durP1;ratioP1;P1;durP2;ratioP2;P2;SDS_P1;SDS_P2;PMS_P1;PMS_P2;Temp;Humidity;BMP_temperature;BMP_pressure;BME280_temperature;BME280_humidity;BME280_pressure;Samples;Min_cycle;Max_cycle;Signal;HPM_P1;HPM_P2
2023/12/25 00:01:01;;;;;;;5.45;1.40;;;;;;;10.05;100.00;100301.28;5006124;28;20386;-73
2023/12/25 00:03:26;;;;;;;5.20;2.00;;;;;;;10.03;100.00;100285.09;5007644;28;20034;-73
2023/12/25 00:05:51;;;;;;;5.72;2.10;;;;;;;10.01;100.00;100305.97;5013533;28;20030;-74
2023/12/25 00:08:17;;;;;;;2.45;1.23;;;;;;;10.04;100.00;100303.06;5003828;28;20037;-74
2023/12/25 00:10:42;;;;;;;4.53;1.35;;;;;;;9.99;100.00;100300.16;5010786;28;20523;-74
2023/12/25 00:13:08;;;;;;;6.25;1.40;;;;;;;9.99;100.00;100291.56;5008269;28;20484;-75
2023/12/25 00:15:33;;;;;;;5.72;1.52;;;;;;;10.13;100.00;100285.69;5001573;28;20033;-74
2023/12/25 00:17:59;;;;;;;4.50;1.80;;;;;;;10.06;100.00;100300.31;5004324;28;20106;-74
2023/12/25 00:20:24;;;;;;;3.95;1.70;;;;;;;10.12;100.00;100289.28;5005527;28;20053;-73
2023/12/25 00:22:49;;;;;;;5.22;1.40;;;;;;;10.12;100.00;100303.03;5004646;28;20030;-75
2023/12/25 00:25:15;;;;;;;5.03;1.38;;;;;;;10.11;100.00;100285.06;5005874;28;20045;-73
2023/12/25 00:27:40;;;;;;;2.97;1.33;;;;;;;10.10;100.00;100299.00;5005743;28;20029;-74
2023/12/25 00:30:07;;;;;;;4.93;1.50;;;;;;;10.11;100.00;100285.06;5004964;28;20034;-74
2023/12/25 00:32:32;;;;;;;8.82;1.50;;;;;;;10.10;100.00;100288.63;5003191;28;20049;-73
2023/12/25 00:34:57;;;;;;;2.75;1.70;;;;;;;10.01;100.00;100302.56;5005017;28;20608;-74
2023/12/25 00:37:23;;;;;;;3.03;1.60;;;;;;;10.02;100.00;100291.22;5000733;28;20035;-74
2023/12/25 00:39:48;;;;;;;3.28;1.50;;;;;;;10.15;100.00;100301.88;5000818;28;20460;-74
2023/12/25 00:42:14;;;;;;;3.13;1.45;;;;;;;10.14;100.00;100297.69;5006778;28;20116;-73
2023/12/25 00:44:39;;;;;;;7.40;2.05;;;;;;;10.10;100.00;100292.03;5005200;28;20118;-75
2023/12/25 00:47:05;;;;;;;7.30;1.55;;;;;;;10.11;100.00;100298.84;5007890;28;20041;-74
2023/12/25 00:49:30;;;;;;;3.08;1.50;;;;;;;10.12;100.00;100297.06;5008102;28;20057;-73
2023/12/25 00:51:56;;;;;;;3.30;1.60;;;;;;;10.09;100.00;100289.59;5017520;28;20558;-75
2023/12/25 00:54:23;;;;;;;3.75;1.55;;;;;;;10.13;100.00;100286.53;5008420;28;20022;-74
2023/12/25 00:56:48;;;;;;;3.78;1.63;;;;;;;10.10;100.00;100286.84;5009562;28;20515;-74
2023/12/25 00:59:15;;;;;;;6.00;1.70;;;;;;;10.08;100.00;100285.41;5007746;28;20029;-74
2023/12/25 01:01:40;;;;;;;4.30;1.50;;;;;;;10.02;100.00;100292.06;5002961;28;20799;-74
2023/12/25 01:04:06;;;;;;;7.88;1.98;;;;;;;10.10;100.00;100292.03;5010032;28;20432;-75
2023/12/25 01:06:31;;;;;;;2.80;1.50;;;;;;;10.06;100.00;100303.69;5006197;28;20076;-75
2023/12/25 01:08:58;;;;;;;4.53;1.17;;;;;;;10.09;100.00;100310.31;5013245;28;20080;-74
2023/12/25 01:11:24;;;;;;;6.00;1.55;;;;;;;10.08;100.00;100322.47;5010268;28;20038;-74
2023/12/25 01:13:49;;;;;;;2.35;1.40;;;;;;;10.14;100.00;100323.59;4996370;28;20034;-74
2023/12/25 01:16:15;;;;;;;5.05;1.30;;;;;;;10.03;100.00;100327.34;5006614;28;20060;-74
2023/12/25 01:18:40;;;;;;;3.20;1.23;;;;;;;10.08;100.00;100334.63;5006901;28;20030;-74
2023/12/25 01:21:06;;;;;;;5.97;1.30;;;;;;;10.02;100.00;100327.50;5010836;28;20053;-74
2023/12/25 01:23:31;;;;;;;3.53;1.60;;;;;;;10.12;100.00;100325.56;5012257;28;20025;-75
2023/12/25 01:25:57;;;;;;;3.08;1.20;;;;;;;10.10;100.00;100323.13;5010488;28;20112;-74
2023/12/25 01:28:23;;;;;;;2.83;1.25;;;;;;;10.07;100.00;100330.41;5008373;28;20071;-74
2023/12/25 01:30:48;;;;;;;2.83;1.30;;;;;;;10.11;100.00;100331.69;5007335;28;20497;-76
2023/12/25 01:33:14;;;;;;;2.70;1.17;;;;;;;10.17;100.00;100327.63;5025693;28;20042;-74
2023/12/25 01:35:39;;;;;;;3.15;1.35;;;;;;;10.10;100.00;100324.91;5008910;28;20044;-74
2023/12/25 01:38:06;;;;;;;3.80;1.25;;;;;;;10.17;100.00;100333.66;4992606;28;20084;-74
2023/12/25 01:40:32;;;;;;;4.72;1.20;;;;;;;10.21;100.00;100337.53;5008787;28;20497;-74
2023/12/25 01:42:57;;;;;;;3.72;1.10;;;;;;;10.20;100.00;100325.53;5006912;28;20045;-74
2023/12/25 01:45:22;;;;;;;3.63;1.17;;;;;;;10.19;100.00;100336.88;5008409;28;20516;-74
2023/12/25 01:47:48;;;;;;;1.40;0.93;;;;;;;10.14;100.00;100347.72;5007671;28;20033;-75
2023/12/25 01:50:15;;;;;;;1.85;1.05;;;;;;;10.06;100.00;100355.50;5008460;28;20440;-74
2023/12/25 01:52:40;;;;;;;3.50;1.73;;;;;;;10.12;100.00;100361.81;5008510;28;20561;-74
2023/12/25 01:55:07;;;;;;;2.92;1.20;;;;;;;10.11;100.00;100370.56;5013834;28;20041;-74
2023/12/25 01:57:33;;;;;;;4.03;1.20;;;;;;;10.16;100.00;100350.16;5004242;28;20030;-74
2023/12/25 01:59:59;;;;;;;4.72;1.17;;;;;;;10.21;100.00;100355.66;5010629;28;20050;-75
2023/12/25 02:02:24;;;;;;;7.25;1.40;;;;;;;10.12;100.00;100365.22;5009321;28;20034;-74
2023/12/25 02:04:50;;;;;;;3.75;1.30;;;;;;;10.20;100.00;100369.56;5006744;28;20061;-75
2023/12/25 02:07:16;;;;;;;1.67;1.23;;;;;;;10.12;100.00;100378.16;5005469;28;20516;-75
2023/12/25 02:09:47;;;;;;;2.60;1.40;;;;;;;10.15;100.00;100374.44;4992883;28;20101;-73
2023/12/25 02:12:13;;;;;;;2.50;1.00;;;;;;;10.20;100.00;100364.41;5006138;28;20061;-75
2023/12/25 02:14:39;;;;;;;1.60;1.10;;;;;;;10.20;100.00;100363.59;5009868;28;20077;-74
2023/12/25 02:17:05;;;;;;;2.75;1.20;;;;;;;10.26;100.00;100365.53;4993038;28;20148;-74
2023/12/25 02:19:46;;;;;;;2.35;1.38;;;;;;;10.20;100.00;100368.78;5012516;28;20034;-74
2023/12/25 02:22:12;;;;;;;3.95;1.00;;;;;;;10.16;100.00;100359.72;5016791;28;20029;-75
2023/12/25 02:24:44;;;;;;;3.97;1.17;;;;;;;10.12;100.00;100359.22;5012925;28;20088;-74
2023/12/25 02:27:09;;;;;;;6.07;1.10;;;;;;;10.07;100.00;100361.50;5010480;28;20646;-74
2023/12/25 02:29:36;;;;;;;2.70;0.90;;;;;;;10.22;100.00;100361.66;5011605;28;20041;-76
2023/12/25 02:32:02;;;;;;;6.50;1.20;;;;;;;10.17;100.00;100356.97;5011397;28;20029;-74
2023/12/25 02:34:28;;;;;;;2.55;1.10;;;;;;;10.17;100.00;100351.78;5008462;28;20477;-75
2023/12/25 02:36:53;;;;;;;1.98;0.93;;;;;;;10.22;100.00;100359.84;5003382;28;20084;-74
2023/12/25 02:39:19;;;;;;;3.03;1.13;;;;;;;10.20;100.00;100372.16;5016300;28;20029;-74
2023/12/25 02:41:45;;;;;;;1.80;0.95;;;;;;;10.17;100.00;100369.09;4998845;28;20489;-74
2023/12/25 02:44:11;;;;;;;2.47;1.30;;;;;;;10.28;100.00;100369.59;5014707;28;20040;-74
2023/12/25 02:46:36;;;;;;;8.90;1.42;;;;;;;10.21;100.00;100372.97;4991138;28;20049;-74
2023/12/25 02:49:02;;;;;;;2.63;1.05;;;;;;;10.21;100.00;100371.22;4996226;28;20081;-74
2023/12/25 02:51:27;;;;;;;1.65;0.88;;;;;;;10.19;100.00;100367.97;5009148;28;20041;-73
2023/12/25 02:53:53;;;;;;;1.70;0.75;;;;;;;10.19;100.00;100372.31;5008090;28;20032;-74
2023/12/25 02:56:18;;;;;;;4.30;1.17;;;;;;;10.25;100.00;100372.50;5008031;28;20041;-74
2023/12/25 02:58:44;;;;;;;4.40;1.00;;;;;;;10.24;100.00;100370.88;5008467;28;20034;-74
2023/12/25 03:01:09;;;;;;;3.92;0.90;;;;;;;10.16;100.00;100381.25;5009562;28;20037;-74
2023/12/25 03:03:35;;;;;;;2.42;1.00;;;;;;;10.28;100.00;100385.13;5010056;28;20476;-74
2023/12/25 03:06:00;;;;;;;3.25;1.02;;;;;;;10.29;100.00;100391.13;5007165;28;20068;-74
2023/12/25 03:08:26;;;;;;;2.78;0.82;;;;;;;10.36;100.00;100379.16;5020549;28;20037;-73
2023/12/25 03:10:51;;;;;;;7.25;0.98;;;;;;;10.32;100.00;100370.06;4993213;28;20037;-74
2023/12/25 03:13:17;;;;;;;3.80;0.80;;;;;;;10.32;100.00;100372.66;4994315;28;20056;-74
2023/12/25 03:15:42;;;;;;;1.45;0.70;;;;;;;10.29;100.00;100375.56;5009796;28;20520;-73
2023/12/25 03:18:07;;;;;;;0.68;0.60;;;;;;;10.37;100.00;100383.34;5008191;28;20563;-74
2023/12/25 03:20:33;;;;;;;2.72;0.85;;;;;;;10.32;100.00;100378.69;5010869;28;20038;-74
2023/12/25 03:22:58;;;;;;;2.97;0.55;;;;;;;10.38;100.00;100379.81;5012500;28;20041;-74
2023/12/25 03:25:24;;;;;;;0.70;0.68;;;;;;;10.29;100.00;100384.16;5007531;28;20045;-74
2023/12/25 03:27:49;;;;;;;2.47;0.68;;;;;;;10.33;100.00;100385.47;5013214;28;20044;-74
2023/12/25 03:30:15;;;;;;;2.28;0.60;;;;;;;10.27;100.00;100388.69;5012600;28;20041;-74
2023/12/25 03:32:41;;;;;;;1.70;0.65;;;;;;;10.31;100.00;100387.41;5017455;28;20451;-74
2023/12/25 03:35:06;;;;;;;1.45;0.70;;;;;;;10.28;100.00;100366.16;5009184;28;20034;-73
2023/12/25 03:37:32;;;;;;;0.95;0.50;;;;;;;10.31;100.00;100378.84;5010202;28;20027;-74
2023/12/25 03:39:57;;;;;;;2.28;0.77;;;;;;;10.35;100.00;100372.34;4996933;28;20132;-74
2023/12/25 03:42:23;;;;;;;3.83;1.00;;;;;;;10.35;100.00;100361.97;5010166;28;20042;-73
2023/12/25 03:44:49;;;;;;;1.95;0.77;;;;;;;10.38;100.00;100353.88;5019531;28;20126;-73
2023/12/25 03:47:15;;;;;;;1.15;0.63;;;;;;;10.33;100.00;100356.16;5013190;28;20041;-73
2023/12/25 03:49:41;;;;;;;5.18;0.95;;;;;;;10.36;100.00;100352.41;5007008;28;20057;-74
2023/12/25 03:52:06;;;;;;;4.18;0.73;;;;;;;10.41;100.00;100373.47;5010089;28;20129;-74
2023/12/25 03:54:32;;;;;;;3.20;1.48;;;;;;;10.45;100.00;100366.97;4995924;28;20064;-74
2023/12/25 03:56:57;;;;;;;3.33;1.08;;;;;;;10.41;100.00;100357.91;5011001;28;20037;-73
2023/12/25 03:59:23;;;;;;;1.42;0.90;;;;;;;10.39;100.00;100362.47;5010858;28;20145;-73
2023/12/25 04:01:48;;;;;;;2.47;0.75;;;;;;;10.38;100.00;100373.78;5009168;28;20034;-73
2023/12/25 04:04:14;;;;;;;1.50;0.70;;;;;;;10.42;100.00;100378.50;5013018;28;20026;-74
2023/12/25 04:06:40;;;;;;;0.95;0.65;;;;;;;10.43;100.00;100376.69;4993345;28;20532;-74
2023/12/25 04:09:05;;;;;;;1.70;0.82;;;;;;;10.33;100.00;100385.47;5009521;28;20493;-74
2023/12/25 04:11:31;;;;;;;2.58;0.82;;;;;;;10.35;100.00;100392.28;5012133;28;20044;-74
2023/12/25 04:13:56;;;;;;;1.30;0.60;;;;;;;10.37;100.00;100405.88;5011565;28;21403;-74
2023/12/25 04:16:29;;;;;;;1.00;0.73;;;;;;;10.38;100.00;100402.28;5005287;28;20092;-75
2023/12/25 04:18:55;;;;;;;2.38;1.23;;;;;;;10.36;100.00;100414.63;5012525;28;20022;-74
2023/12/25 04:21:28;;;;;;;1.10;0.70;;;;;;;10.36;100.00;100397.31;5006154;28;20416;-73
2023/12/25 04:23:55;;;;;;;4.20;0.75;;;;;;;10.41;100.00;100401.97;5008179;28;20488;-73
2023/12/25 04:26:21;;;;;;;1.25;0.47;;;;;;;10.30;100.00;100398.75;5009020;28;20044;-74
2023/12/25 04:28:48;;;;;;;1.42;0.60;;;;;;;10.23;100.00;100396.97;5013556;28;20041;-73
2023/12/25 04:31:15;;;;;;;1.88;0.70;;;;;;;10.23;100.00;100386.59;4996223;28;20053;-73
2023/12/25 04:33:41;;;;;;;2.10;0.50;;;;;;;10.26;100.00;100391.44;5010747;28;20096;-73
2023/12/25 04:36:07;;;;;;;4.82;1.33;;;;;;;10.29;100.00;100383.34;4993121;28;20116;-74
2023/12/25 04:38:33;;;;;;;1.52;0.60;;;;;;;10.28;100.00;100390.31;5007629;28;20671;-73
2023/12/25 04:40:59;;;;;;;0.98;0.38;;;;;;;10.27;100.00;100378.31;5006508;28;20523;-74
2023/12/25 04:43:25;;;;;;;3.15;0.60;;;;;;;10.20;100.00;100373.97;5010098;28;20030;-75
2023/12/25 04:45:51;;;;;;;2.15;0.60;;;;;;;10.28;100.00;100387.72;5008386;28;20033;-74
2023/12/25 04:48:17;;;;;;;0.65;0.30;;;;;;;10.27;100.00;100380.91;5012554;28;20038;-74
2023/12/25 04:50:43;;;;;;;1.75;0.35;;;;;;;10.26;100.00;100375.88;5013308;28;20500;-73
2023/12/25 04:53:09;;;;;;;0.50;0.30;;;;;;;10.28;100.00;100372.19;5015123;28;20048;-73
2023/12/25 04:55:35;;;;;;;1.23;0.38;;;;;;;10.26;100.00;100378.47;5008964;28;20517;-73
2023/12/25 04:58:01;;;;;;;0.65;0.40;;;;;;;10.19;100.00;100383.53;5005940;28;20041;-74
2023/12/25 05:00:28;;;;;;;2.42;0.40;;;;;;;10.22;100.00;100387.56;4997407;28;20054;-74
2023/12/25 05:02:53;;;;;;;1.00;0.35;;;;;;;10.27;100.00;100393.88;5011977;28;20029;-74
2023/12/25 05:05:19;;;;;;;1.38;0.40;;;;;;;10.31;100.00;100384.81;5011157;28;20041;-74
2023/12/25 05:07:45;;;;;;;5.43;0.45;;;;;;;10.23;100.00;100384.81;5013703;28;20507;-73
2023/12/25 05:10:10;;;;;;;1.17;0.40;;;;;;;10.22;100.00;100361.66;5011209;28;20480;-74
2023/12/25 05:12:36;;;;;;;0.75;0.40;;;;;;;10.12;100.00;100360.03;5009122;28;20022;-75
2023/12/25 05:15:02;;;;;;;3.75;0.30;;;;;;;10.12;100.00;100335.91;5009661;28;20034;-73
2023/12/25 05:17:27;;;;;;;3.03;0.50;;;;;;;10.07;100.00;100336.38;5012135;28;20109;-74
2023/12/25 05:19:53;;;;;;;0.35;0.22;;;;;;;10.02;100.00;100366.34;5011994;28;20091;-74
2023/12/25 05:22:18;;;;;;;0.30;0.30;;;;;;;10.16;100.00;100376.06;5009251;28;20033;-74
2023/12/25 05:24:44;;;;;;;4.35;0.30;;;;;;;10.17;100.00;100375.09;5014549;28;20048;-74
2023/12/25 05:27:10;;;;;;;0.30;0.30;;;;;;;10.19;100.00;100362.78;5013343;28;20037;-74
2023/12/25 05:29:36;;;;;;;1.23;0.35;;;;;;;10.11;100.00;100360.19;5010890;28;20447;-74
2023/12/25 05:32:02;;;;;;;1.67;0.30;;;;;;;10.07;100.00;100348.53;5012584;28;20026;-75
2023/12/25 05:34:27;;;;;;;1.35;0.50;;;;;;;10.07;100.00;100349.34;5011042;28;20546;-75
2023/12/25 05:36:53;;;;;;;0.73;0.30;;;;;;;10.06;100.00;100359.88;5014632;28;20485;-74
2023/12/25 05:39:19;;;;;;;1.05;0.52;;;;;;;10.02;100.00;100363.75;4997779;28;20087;-74
2023/12/25 05:41:45;;;;;;;1.45;0.45;;;;;;;10.13;100.00;100368.59;5014572;28;20029;-74
2023/12/25 05:44:10;;;;;;;1.80;0.50;;;;;;;10.09;100.00;100367.31;5015675;28;20103;-74
2023/12/25 05:46:36;;;;;;;1.67;0.50;;;;;;;10.08;100.00;100368.31;5017314;28;20057;-73
2023/12/25 05:49:03;;;;;;;0.70;0.40;;;;;;;10.07;100.00;100364.88;5008769;28;20481;-74
2023/12/25 05:51:29;;;;;;;4.13;0.50;;;;;;;10.20;100.00;100359.22;5014954;28;20037;-74
2023/12/25 05:53:55;;;;;;;2.78;0.60;;;;;;;10.09;100.00;100356.97;5009442;28;20646;-74
2023/12/25 05:56:20;;;;;;;6.38;0.70;;;;;;;10.17;100.00;100351.78;5008004;28;20041;-74
2023/12/25 05:58:46;;;;;;;0.75;0.55;;;;;;;10.15;100.00;100343.34;5014466;28;20041;-74
2023/12/25 06:01:13;;;;;;;1.10;0.40;;;;;;;10.06;100.00;100347.75;5012018;28;20062;-75
2023/12/25 06:03:39;;;;;;;4.38;0.80;;;;;;;9.96;100.00;100354.06;5010868;28;20030;-74
2023/12/25 06:06:05;;;;;;;1.67;0.70;;;;;;;9.98;100.00;100355.50;5008214;28;20054;-75
2023/12/25 06:08:30;;;;;;;8.50;2.53;;;;;;;10.00;100.00;100352.75;5012663;28;20072;-74
2023/12/25 06:10:57;;;;;;;2.00;0.85;;;;;;;10.07;100.00;100361.50;5013279;28;20081;-74
2023/12/25 06:13:22;;;;;;;1.35;0.57;;;;;;;10.01;100.00;100373.31;4995194;28;20031;-74
2023/12/25 06:15:48;;;;;;;1.20;0.70;;;;;;;10.12;100.00;100364.41;5010521;28;20458;-75
2023/12/25 06:18:14;;;;;;;1.35;0.68;;;;;;;10.18;100.00;100360.34;5010223;28;20284;-74
2023/12/25 06:20:40;;;;;;;2.95;0.52;;;;;;;10.07;100.00;100367.47;5013111;28;20060;-74
2023/12/25 06:23:06;;;;;;;3.25;0.77;;;;;;;10.05;100.00;100368.63;4999493;28;20429;-73
2023/12/25 06:25:31;;;;;;;2.42;0.80;;;;;;;10.09;100.00;100356.97;5009560;28;20034;-74
2023/12/25 06:27:57;;;;;;;0.98;0.50;;;;;;;10.09;100.00;100364.72;5015571;28;20408;-74
2023/12/25 06:30:22;;;;;;;1.35;0.68;;;;;;;10.15;100.00;100366.66;5009038;28;20452;-74
2023/12/25 06:32:48;;;;;;;3.10;0.68;;;;;;;10.17;100.00;100361.31;5012209;28;20049;-74
2023/12/25 06:35:13;;;;;;;1.58;0.60;;;;;;;10.17;100.00;100350.94;5009798;28;20042;-74
2023/12/25 06:37:39;;;;;;;1.48;0.57;;;;;;;10.07;100.00;100345.94;5008237;28;20429;-74
2023/12/25 06:40:05;;;;;;;1.70;0.52;;;;;;;10.17;100.00;100356.97;5006846;28;20042;-74
2023/12/25 06:42:31;;;;;;;0.45;0.35;;;;;;;10.21;100.00;100362.59;5013545;28;20059;-74
2023/12/25 06:44:56;;;;;;;2.65;0.63;;;;;;;10.23;100.00;100347.72;5010761;28;20072;-74
2023/12/25 06:47:22;;;;;;;2.38;0.77;;;;;;;10.20;100.00;100345.44;5011559;28;20037;-74
2023/12/25 06:49:47;;;;;;;2.17;0.60;;;;;;;10.19;100.00;100349.84;5007965;28;20536;-73
2023/12/25 06:52:13;;;;;;;1.33;0.60;;;;;;;10.20;100.00;100361.00;5011366;28;20030;-74
2023/12/25 06:54:38;;;;;;;3.58;0.70;;;;;;;10.14;100.00;100341.75;4997452;28;20053;-74
2023/12/25 06:57:04;;;;;;;1.10;0.60;;;;;;;10.19;100.00;100349.84;5008550;28;20030;-74
2023/12/25 06:59:30;;;;;;;1.05;0.50;;;;;;;10.29;100.00;100353.03;5011763;28;20532;-74
2023/12/25 07:01:55;;;;;;;1.50;0.40;;;;;;;10.23;100.00;100347.72;5011341;28;20096;-75
2023/12/25 07:04:22;;;;;;;0.80;0.35;;;;;;;10.21;100.00;100354.81;5008421;28;20034;-75
2023/12/25 07:06:48;;;;;;;1.05;0.52;;;;;;;10.35;100.00;100353.41;5015042;28;20038;-74
2023/12/25 07:09:14;;;;;;;1.90;0.43;;;;;;;10.37;100.00;100354.03;5017610;28;20034;-74
2023/12/25 07:11:41;;;;;;;1.55;1.05;;;;;;;10.36;100.00;100355.00;5007031;28;20397;-74
2023/12/25 07:14:08;;;;;;;0.45;0.30;;;;;;;10.31;100.00;100351.13;5011397;28;20536;-74
2023/12/25 07:16:33;;;;;;;2.85;0.50;;;;;;;10.25;100.00;100361.31;5011445;28;20393;-74
2023/12/25 07:18:59;;;;;;;2.45;0.63;;;;;;;10.28;100.00;100363.56;5011083;28;20030;-74
2023/12/25 07:21:25;;;;;;;1.15;0.50;;;;;;;10.32;100.00;100365.72;4999330;28;20057;-73
2023/12/25 07:23:50;;;;;;;1.52;0.40;;;;;;;10.33;100.00;100350.97;5008723;28;20034;-75
2023/12/25 07:26:17;;;;;;;3.33;0.52;;;;;;;10.28;100.00;100363.56;5007043;28;20037;-73
2023/12/25 07:28:43;;;;;;;2.22;0.90;;;;;;;10.31;100.00;100360.69;5010909;28;20507;-74
2023/12/25 07:31:08;;;;;;;0.47;0.30;;;;;;;10.33;100.00;100366.50;5006099;28;20034;-74
2023/12/25 07:33:35;;;;;;;0.28;0.28;;;;;;;10.35;100.00;100366.34;5010545;28;20041;-75
2023/12/25 07:36:01;;;;;;;1.13;0.20;;;;;;;10.39;100.00;100363.25;5006792;28;20042;-75
2023/12/25 07:38:26;;;;;;;2.17;0.45;;;;;;;10.39;100.00;100365.84;5003375;28;20056;-74
2023/12/25 07:40:52;;;;;;;1.67;0.40;;;;;;;10.40;100.00;100354.53;5010846;28;20045;-74
2023/12/25 07:43:17;;;;;;;1.25;0.40;;;;;;;10.38;100.00;100356.47;5007173;28;20037;-74
2023/12/25 07:45:44;;;;;;;1.73;0.98;;;;;;;10.36;100.00;100371.38;5021252;28;20045;-75
2023/12/25 07:48:09;;;;;;;1.05;0.30;;;;;;;10.37;100.00;100367.00;5009658;28;20044;-74
2023/12/25 07:50:34;;;;;;;3.50;0.30;;;;;;;10.41;100.00;100370.88;5010786;28;20038;-74
2023/12/25 07:53:00;;;;;;;1.98;0.40;;;;;;;10.41;100.00;100369.09;5005281;28;20034;-74
2023/12/25 07:55:25;;;;;;;0.43;0.30;;;;;;;10.47;100.00;100375.38;5013694;28;20049;-74
2023/12/25 07:57:51;;;;;;;0.45;0.30;;;;;;;10.46;100.00;100376.38;5007449;28;20033;-74
2023/12/25 08:00:17;;;;;;;0.68;0.40;;;;;;;10.47;100.00;100368.44;5008717;28;20109;-74
2023/12/25 08:02:42;;;;;;;0.30;0.30;;;;;;;10.44;100.00;100379.13;5011152;28;20044;-74
2023/12/25 08:05:07;;;;;;;1.23;0.40;;;;;;;10.40;100.00;100385.63;4996284;28;20070;-75
2023/12/25 08:07:33;;;;;;;0.65;0.30;;;;;;;10.50;100.00;100386.25;5007974;28;20041;-74
2023/12/25 08:09:58;;;;;;;1.88;0.40;;;;;;;10.42;100.00;100391.44;5007042;28;20045;-74
2023/12/25 08:12:24;;;;;;;0.52;0.40;;;;;;;10.49;100.00;100412.31;5024555;28;20042;-74
2023/12/25 08:14:49;;;;;;;1.02;0.40;;;;;;;10.52;100.00;100402.44;5005800;28;20050;-75
2023/12/25 08:17:17;;;;;;;5.60;2.83;;;;;;;10.50;100.00;100406.19;5006780;28;20034;-74
2023/12/25 08:19:42;;;;;;;43.15;17.13;;;;;;;10.40;100.00;100401.19;4998337;28;20050;-74
2023/12/25 08:22:08;;;;;;;43.50;14.77;;;;;;;10.46;100.00;100403.09;5004801;28;20034;-75
2023/12/25 08:24:35;;;;;;;19.13;11.75;;;;;;;10.47;100.00;100402.13;4991972;28;20207;-74
2023/12/25 08:27:00;;;;;;;3.33;1.45;;;;;;;10.53;100.00;100418.81;5000868;28;20040;-74
2023/12/25 08:29:26;;;;;;;2.65;1.48;;;;;;;10.51;100.00;100413.00;5006831;28;20046;-75
2023/12/25 08:31:51;;;;;;;4.10;3.45;;;;;;;10.55;100.00;100422.06;4991066;28;20026;-75
2023/12/25 08:34:17;;;;;;;7.97;5.85;;;;;;;10.60;100.00;100430.13;5004705;28;20493;-74
2023/12/25 08:36:42;;;;;;;5.32;4.50;;;;;;;10.60;100.00;100427.53;5003464;28;20037;-74
2023/12/25 08:39:08;;;;;;;5.70;3.03;;;;;;;10.67;100.00;100425.91;4999137;28;20030;-74
2023/12/25 08:41:34;;;;;;;1.70;1.60;;;;;;;10.62;100.00;100446.31;5003405;28;20493;-74
2023/12/25 08:43:59;;;;;;;0.50;0.50;;;;;;;10.66;100.00;100441.63;5006442;28;20041;-74
2023/12/25 08:46:25;;;;;;;1.02;0.40;;;;;;;10.60;100.00;100452.66;5004763;28;20037;-74
2023/12/25 08:48:50;;;;;;;1.00;0.50;;;;;;;10.56;100.00;100453.97;5002667;28;20037;-74
2023/12/25 08:51:16;;;;;;;0.55;0.30;;;;;;;10.66;100.00;100454.59;5006620;28;20069;-75
2023/12/25 08:53:42;;;;;;;1.15;0.40;;;;;;;10.67;100.00;100457.03;5011680;28;20037;-73
2023/12/25 08:56:08;;;;;;;0.60;0.40;;;;;;;10.64;100.00;100459.13;5007024;28;20034;-73
2023/12/25 08:58:35;;;;;;;0.60;0.40;;;;;;;10.69;100.00;100460.25;5011402;28;20507;-75
2023/12/25 09:01:00;;;;;;;1.38;0.40;;;;;;;10.80;100.00;100461.69;5007945;28;20042;-75
2023/12/25 09:03:26;;;;;;;0.30;0.30;;;;;;;10.71;100.00;100458.31;5006364;28;20026;-72
2023/12/25 09:05:51;;;;;;;0.45;0.30;;;;;;;10.69;100.00;100464.63;5013818;28;20079;-74
2023/12/25 09:08:17;;;;;;;0.80;0.50;;;;;;;10.74;100.00;100451.16;5002470;28;20037;-74
2023/12/25 09:10:42;;;;;;;1.95;0.40;;;;;;;10.70;100.00;100464.47;5012634;28;20053;-74
2023/12/25 09:13:08;;;;;;;0.70;0.50;;;;;;;10.63;100.00;100460.91;5015046;28;20049;-74
2023/12/25 09:15:33;;;;;;;0.60;0.47;;;;;;;10.62;100.00;100466.28;4999086;28;20191;-74
2023/12/25 09:17:59;;;;;;;0.30;0.30;;;;;;;10.59;100.00;100475.19;4993470;28;20037;-73
2023/12/25 09:20:24;;;;;;;2.00;0.70;;;;;;;10.61;100.00;100462.06;4996043;28;20612;-73
2023/12/25 09:22:50;;;;;;;1.10;0.52;;;;;;;10.59;100.00;100461.44;5009811;28;20029;-74
2023/12/25 09:25:15;;;;;;;2.05;0.82;;;;;;;10.62;100.00;100471.44;5019342;28;20049;-73
2023/12/25 09:27:41;;;;;;;1.92;0.45;;;;;;;10.52;100.00;100469.84;5010244;28;20041;-74
2023/12/25 09:30:08;;;;;;;1.17;1.08;;;;;;;10.51;100.00;100475.22;5011682;28;20138;-73
2023/12/25 09:32:34;;;;;;;0.50;0.40;;;;;;;10.59;100.00;100459.63;5011420;28;20040;-73
2023/12/25 09:34:59;;;;;;;1.00;0.40;;;;;;;10.56;100.00;100461.75;5011731;28;20033;-74
2023/12/25 09:37:28;;;;;;;0.50;0.30;;;;;;;10.57;100.00;100458.16;5011607;28;20045;-74
2023/12/25 09:39:54;;;;;;;0.50;0.50;;;;;;;10.58;100.00;100458.00;5012895;28;20041;-74
2023/12/25 09:42:19;;;;;;;1.05;0.32;;;;;;;10.63;100.00;100481.66;5020540;28;20030;-74
2023/12/25 09:44:48;;;;;;;1.70;0.40;;;;;;;10.65;100.00;100466.75;5015293;28;20131;-74
2023/12/25 09:47:14;;;;;;;12.13;5.53;;;;;;;10.72;100.00;100482.47;5010153;28;20029;-74
2023/12/25 09:49:40;;;;;;;1.95;1.08;;;;;;;10.67;100.00;100487.34;5016805;28;20420;-73
2023/12/25 09:52:06;;;;;;;0.80;0.55;;;;;;;10.74;100.00;100503.03;5015845;28;20095;-74
2023/12/25 09:54:33;;;;;;;1.77;0.70;;;;;;;10.75;100.00;100496.88;5009444;28;20045;-74
2023/12/25 09:57:01;;;;;;;2.03;0.73;;;;;;;10.71;100.00;100510.16;5009587;28;20038;-74
2023/12/25 09:59:28;;;;;;;1.63;0.60;;;;;;;10.61;100.00;100519.13;4993519;28;20040;-74
2023/12/25 10:01:55;;;;;;;1.05;0.40;;;;;;;10.74;100.00;100508.22;5016374;28;20121;-74
2023/12/25 10:04:21;;;;;;;1.25;0.40;;;;;;;10.76;100.00;100527.84;5009698;28;20088;-74
2023/12/25 10:06:46;;;;;;;2.45;0.50;;;;;;;10.78;100.00;100519.91;5006020;28;20033;-74
2023/12/25 10:09:12;;;;;;;3.22;0.40;;;;;;;10.76;100.00;100532.22;5011022;28;20405;-73
2023/12/25 10:11:37;;;;;;;0.47;0.30;;;;;;;10.73;100.00;100512.59;5011893;28;20095;-74
2023/12/25 10:14:03;;;;;;;2.03;0.60;;;;;;;10.74;100.00;100526.38;5010025;28;20100;-74
2023/12/25 10:16:29;;;;;;;2.10;0.73;;;;;;;10.78;100.00;100514.72;5007144;28;20041;-73
2023/12/25 10:18:57;;;;;;;4.93;0.60;;;;;;;10.73;100.00;100512.59;5015380;28;20111;-74
2023/12/25 10:21:22;;;;;;;2.40;0.70;;;;;;;10.73;100.00;100517.78;5005890;28;20569;-74
2023/12/25 10:23:48;;;;;;;2.55;0.73;;;;;;;10.68;100.00;100494.97;5014618;28;20041;-75
2023/12/25 10:26:26;;;;;;;2.22;1.60;;;;;;;10.63;100.00;100491.22;5016145;28;20033;-74
2023/12/25 10:28:52;;;;;;;0.98;0.50;;;;;;;10.63;100.00;100492.03;5011656;28;20508;-77
2023/12/25 10:31:26;;;;;;;1.33;0.50;;;;;;;10.64;100.00;100509.22;5009181;28;20037;-73
2023/12/25 10:33:58;;;;;;;0.90;0.60;;;;;;;10.66;100.00;100502.09;5007334;28;20898;-73
2023/12/25 10:36:25;;;;;;;1.15;0.60;;;;;;;10.64;100.00;100496.25;5004340;28;20048;-73
2023/12/25 10:38:51;;;;;;;4.15;1.40;;;;;;;10.67;100.00;100501.09;4993956;28;20124;-73
2023/12/25 10:41:27;;;;;;;1.85;1.10;;;;;;;10.61;100.00;100495.78;5006509;28;20068;-74
2023/12/25 10:43:58;;;;;;;1.48;1.30;;;;;;;10.70;100.00;100474.84;5003361;28;20038;-73
2023/12/25 10:46:26;;;;;;;5.05;2.70;;;;;;;10.72;100.00;100477.28;5012538;28;20041;-73
2023/12/25 10:48:53;;;;;;;2.90;1.13;;;;;;;10.73;100.00;100470.31;5011189;28;20034;-74
2023/12/25 10:51:36;;;;;;;1.60;0.90;;;;;;;10.65;100.00;100466.75;5010115;28;21195;-73
2023/12/25 10:54:05;;;;;;;3.35;0.68;;;;;;;10.66;100.00;100488.28;5009179;28;20042;-73
2023/12/25 10:56:33;;;;;;;1.20;0.80;;;;;;;10.66;100.00;100499.50;5010942;28;20508;-73
2023/12/25 10:59:07;;;;;;;1.35;0.73;;;;;;;10.78;100.00;100504.34;5021894;28;20439;-73
2023/12/25 11:01:33;;;;;;;2.13;1.17;;;;;;;10.77;100.00;100506.13;5014818;28;20044;-75
2023/12/25 11:04:00;;;;;;;1.02;0.40;;;;;;;10.78;100.00;100488.78;5015973;28;20037;-74
2023/12/25 11:06:26;;;;;;;1.05;0.30;;;;;;;10.72;100.00;100487.66;5001659;28;20034;-74
2023/12/25 11:08:52;;;;;;;2.00;0.70;;;;;;;10.74;100.00;100477.94;5010137;28;20064;-73
2023/12/25 11:11:18;;;;;;;3.60;0.60;;;;;;;10.73;100.00;100484.06;4987656;28;21230;-74